Saturday, February 24, 2018, 9:39 AM CST
Back to Local

KDKB, De Kalb, De Kalb Taylor Municipal Airport

Location: Dekalb, IL, United States Lat: 41.932
Local Time: 9:39 AM CST (15:39 GMT) Lon: -88.708
Time Zone: US/Central Elev: 915 ft

Show me the last for .
Show Decoded

2018-02-24 09:15 METAR KDKB 241515Z AUTO 09012KT 7SM OVC012 01/M01 A3013 RMK AO2 T00071006 =
2018-02-24 08:55 METAR KDKB 241455Z AUTO 09011KT 7SM OVC012 01/00 A3015 RMK AO2 T00061005 =
2018-02-24 08:35 METAR KDKB 241435Z AUTO 09011G15KT 7SM OVC012 01/M01 A3015 RMK AO2 T00051006 =
2018-02-24 08:15 METAR KDKB 241415Z AUTO 09011KT 7SM OVC012 00/M01 A3015 RMK AO2 T00041008 =
2018-02-24 07:55 METAR KDKB 241355Z AUTO 09010KT 7SM OVC012 00/M01 A3015 RMK AO2 T00011010 =
2018-02-24 07:35 METAR KDKB 241335Z AUTO 08013KT 7SM OVC012 00/M01 A3014 RMK AO2 T00001010 =
2018-02-24 07:15 METAR KDKB 241315Z AUTO 08011KT 7SM OVC012 00/M01 A3015 RMK AO2 T10011012 =
2018-02-24 06:55 METAR KDKB 241255Z AUTO 07011G16KT 7SM OVC012 00/M01 A3015 RMK AO2 T10031015 =
2018-02-24 06:35 METAR KDKB 241235Z AUTO 06010G16KT 10SM OVC012 00/M01 A3016 RMK AO2 T10051015 =
2018-02-24 06:15 METAR KDKB 241215Z AUTO 07012KT 10SM OVC012 00/M02 A3016 RMK AO2 T10051016 =
2018-02-24 05:55 METAR KDKB 241155Z AUTO 06012KT 7SM OVC012 M01/M02 A3017 RMK AO2 T10061016 11005
                 21008 =
2018-02-24 05:35 METAR KDKB 241135Z AUTO 07011G16KT 7SM SCT010 OVC100 M01/M02 A3018 RMK AO2
                 T10061019 =
2018-02-24 05:15 METAR KDKB 241115Z AUTO 05011KT 7SM OVC100 M01/M02 A3018 RMK AO2 T10081020 =
2018-02-24 04:55 METAR KDKB 241055Z AUTO 06010KT 10SM OVC100 M01/M02 A3018 RMK AO2 T10081021 =
2018-02-24 04:35 METAR KDKB 241035Z AUTO 06011KT 10SM SCT100 M01/M02 A3018 RMK AO2 T10081023 =
2018-02-24 04:15 METAR KDKB 241015Z AUTO 06009KT 10SM CLR M01/M02 A3019 RMK AO2 T10071022 =
2018-02-24 03:55 METAR KDKB 240955Z AUTO 06009KT 10SM CLR M01/M02 A3020 RMK AO2 T10071020 =
2018-02-24 03:35 METAR KDKB 240935Z AUTO 06009KT 7SM CLR M01/M02 A3020 RMK AO2 T10081016 =
2018-02-24 03:15 METAR KDKB 240915Z AUTO 05009KT 7SM CLR M01/M02 A3021 RMK AO2 T10071016 =
2018-02-24 02:55 METAR KDKB 240855Z AUTO 03009KT 7SM CLR M01/M02 A3021 RMK AO2 T10071016 =
2018-02-24 02:35 METAR KDKB 240835Z AUTO 02008KT 7SM CLR 00/M02 A3022 RMK AO2 T10051016 =
2018-02-24 02:15 METAR KDKB 240815Z AUTO 01008KT 7SM CLR M01/M02 A3022 RMK AO2 T10061017 =
2018-02-24 01:55 METAR KDKB 240755Z AUTO 35008KT 7SM CLR M01/M02 A3022 RMK AO2 T10071018 =
2018-02-24 01:35 METAR KDKB 240735Z AUTO 35009KT 7SM CLR M01/M02 A3022 RMK AO2 T10071018 =
2018-02-24 01:15 METAR KDKB 240715Z AUTO 34007KT 7SM CLR 00/M02 A3022 RMK AO2 T10051018 =
2018-02-24 00:55 METAR KDKB 240655Z AUTO 33007KT 7SM CLR 00/M02 A3023 RMK AO2 T10051016 =
2018-02-24 00:35 METAR KDKB 240635Z AUTO 32006KT 7SM CLR 00/M01 A3025 RMK AO2 T10051014 =
2018-02-24 00:15 METAR KDKB 240615Z AUTO 30004KT 7SM CLR 00/M01 A3026 RMK AO2 T10051013 =
2018-02-23 23:55 METAR KDKB 240555Z AUTO 29004KT 7SM CLR M01/M02 A3027 RMK AO2 T10071017 10019
                 21007 400481007 =
2018-02-23 23:35 METAR KDKB 240535Z AUTO 27003KT 7SM CLR M01/M02 A3027 RMK AO2 T10071016 =
2018-02-23 23:15 METAR KDKB 240515Z AUTO 28003KT 7SM CLR M01/M01 A3027 RMK AO2 T10061015 =
2018-02-23 22:55 METAR KDKB 240455Z AUTO 28003KT 7SM CLR 00/M01 A3027 RMK AO2 T10051015 =
2018-02-23 22:35 METAR KDKB 240435Z AUTO 00000KT 7SM CLR 00/M01 A3027 RMK AO2 T10051013 =
2018-02-23 22:15 METAR KDKB 240415Z AUTO 28003KT 7SM CLR M01/M01 A3027 RMK AO2 T10061013 =
2018-02-23 21:55 METAR KDKB 240355Z AUTO 29003KT 7SM CLR 00/M01 A3027 RMK AO2 T10031010 =
2018-02-23 21:35 METAR KDKB 240335Z AUTO 30004KT 7SM CLR 00/M01 A3027 RMK AO2 T10051010 =
2018-02-23 21:15 METAR KDKB 240315Z AUTO 00000KT 7SM CLR 00/M01 A3027 RMK AO2 T10011010 =
2018-02-23 20:55 METAR KDKB 240255Z AUTO 31004KT 7SM CLR 00/M01 A3027 RMK AO2 T10011010 =
2018-02-23 20:35 METAR KDKB 240235Z AUTO 31004KT 7SM CLR 00/M01 A3027 RMK AO2 T00001008 =
2018-02-23 20:15 METAR KDKB 240215Z AUTO 30006KT 10SM CLR 00/M01 A3026 RMK AO2 T00001008 =
2018-02-23 19:55 METAR KDKB 240155Z AUTO 31005KT 10SM CLR 01/M01 A3025 RMK AO2 T00051006 =
2018-02-23 19:35 METAR KDKB 240135Z AUTO 30006KT 10SM SCT016 01/00 A3025 RMK AO2 T00061003 =
2018-02-23 19:15 METAR KDKB 240115Z AUTO 28006KT 10SM OVC016 01/00 A3025 RMK AO2 T00101001 =
2018-02-23 18:55 METAR KDKB 240055Z AUTO 29006KT 10SM BKN016 01/00 A3024 RMK AO2 T00120000 =
2018-02-23 18:35 METAR KDKB 240035Z AUTO 28008KT 10SM CLR 01/00 A3025 RMK AO2 T00140000 =
2018-02-23 18:15 METAR KDKB 240015Z AUTO 28006KT 10SM CLR 02/00 A3024 RMK AO2 T00150000 =
2018-02-23 17:55 METAR KDKB 232355Z AUTO 27008KT 10SM SCT018 02/00 A3024 RMK AO2 T00200000 10034
                 20018 =
2018-02-23 17:35 METAR KDKB 232335Z AUTO 28006KT 10SM BKN018 03/00 A3023 RMK AO2 T00250002 =
2018-02-23 17:15 METAR KDKB 232315Z AUTO 27007KT 10SM OVC018 03/01 A3023 RMK AO2 T00300005 =
2018-02-23 16:55 METAR KDKB 232255Z AUTO 27008KT 10SM OVC018 03/01 A3023 RMK AO2 T00330008 =
2018-02-23 16:35 METAR KDKB 232235Z AUTO 28009KT 10SM OVC018 03/01 A3022 RMK AO2 T00330010 =
2018-02-23 16:15 METAR KDKB 232215Z AUTO 27010G15KT 10SM OVC016 03/01 A3022 RMK AO2 T00330009 =
2018-02-23 15:55 METAR KDKB 232155Z AUTO 27010KT 10SM OVC016 03/01 A3022 RMK AO2 T00320008 =
2018-02-23 15:35 METAR KDKB 232135Z AUTO 26009KT 10SM OVC014 03/01 A3022 RMK AO2 T00310008 =
2018-02-23 15:15 METAR KDKB 232115Z AUTO 27012KT 10SM OVC014 03/01 A3022 RMK AO2 T00320009 =
2018-02-23 14:55 METAR KDKB 232055Z AUTO 26009KT 10SM OVC012 03/01 A3021 RMK AO2 T00290008 =
2018-02-23 14:35 METAR KDKB 232035Z AUTO 25009KT 10SM OVC010 03/01 A3021 RMK AO2 T00260008 =
2018-02-23 14:15 METAR KDKB 232015Z AUTO 27011KT 10SM OVC008 02/01 A3020 RMK AO2 T00220008 =
2018-02-23 13:55 METAR KDKB 231955Z AUTO 26011KT 10SM OVC006 02/01 A3019 RMK AO2 T00200011 =
2018-02-23 13:35 METAR KDKB 231935Z AUTO 27013KT 10SM OVC006 02/01 A3019 RMK AO2 T00190011 =
2018-02-23 13:15 METAR KDKB 231915Z AUTO 28011G18KT 10SM OVC006 02/01 A3019 RMK AO2 T00210014 =
2018-02-23 12:55 METAR KDKB 231855Z AUTO 27012KT 10SM OVC006 02/01 A3019 RMK AO2 T00200014 =
2018-02-23 12:35 METAR KDKB 231835Z AUTO 27012KT 10SM OVC006 02/01 A3019 RMK AO2 T00200014 =
2018-02-23 12:15 METAR KDKB 231815Z AUTO 26011G17KT 10SM OVC008 02/01 A3019 RMK AO2 T00230014 =
2018-02-23 11:55 METAR KDKB 231755Z AUTO 27013KT 10SM OVC006 03/02 A3019 RMK AO2 T00270017 10048
                 20025 =
2018-02-23 11:35 METAR KDKB 231735Z AUTO 27017G20KT 10SM OVC006 03/02 A3019 RMK AO2 T00270020 =
2018-02-23 11:15 METAR KDKB 231715Z AUTO 27014G19KT 10SM OVC006 03/02 A3018 RMK AO2 T00280021 =
2018-02-23 10:55 METAR KDKB 231655Z AUTO 27015G19KT 10SM OVC006 03/02 A3017 RMK AO2 T00260020 =
2018-02-23 10:35 METAR KDKB 231635Z AUTO 27014G19KT 10SM OVC006 03/02 A3016 RMK AO2 T00260023 =
2018-02-23 10:15 METAR KDKB 231615Z AUTO 26017G23KT 10SM OVC004 03/02 A3016 RMK AO2 T00250022 =
2018-02-23 09:55 METAR KDKB 231555Z AUTO 27014KT 7SM OVC004 03/03 A3016 RMK AO2 T00260025 =

Support USWX by starting your Amazon purchase here.